createdAt,value
2018-07-16T00:01:05.026Z,19.57
2018-07-16T00:02:04.946Z,19.52
2018-07-16T00:03:58.225Z,19.56
2018-07-16T00:04:58.166Z,19.49
2018-07-16T00:06:51.463Z,19.56
2018-07-16T00:07:51.384Z,19.50
2018-07-16T00:09:44.666Z,19.50
2018-07-16T00:10:44.605Z,19.46
2018-07-16T00:12:37.903Z,19.45
2018-07-16T00:13:37.826Z,19.46
2018-07-16T00:15:31.106Z,19.45
2018-07-16T00:16:31.046Z,19.46
2018-07-16T00:18:24.377Z,19.38
2018-07-16T00:19:24.298Z,19.43
2018-07-16T00:21:17.609Z,19.35
2018-07-16T00:22:17.519Z,19.31
2018-07-16T00:24:10.797Z,19.38
2018-07-16T00:25:10.735Z,19.30
2018-07-16T00:27:04.039Z,19.35
2018-07-16T00:28:03.953Z,19.30
2018-07-16T00:29:57.234Z,19.27
2018-07-16T00:30:57.174Z,19.24
2018-07-16T00:32:50.470Z,19.24
2018-07-16T00:33:50.394Z,19.19
2018-07-16T00:35:43.675Z,19.23
2018-07-16T00:36:43.610Z,19.25
2018-07-16T00:38:36.899Z,19.19
2018-07-16T00:39:36.820Z,19.17
2018-07-16T00:41:30.101Z,19.13
2018-07-16T00:42:30.040Z,19.15
2018-07-16T00:44:23.398Z,19.13
2018-07-16T00:45:23.256Z,19.13
2018-07-16T00:47:16.554Z,19.12
2018-07-16T00:48:16.476Z,19.15
2018-07-16T00:50:09.755Z,19.12
2018-07-16T00:51:09.697Z,19.09
2018-07-16T00:53:03.099Z,19.15
2018-07-16T00:54:02.918Z,19.12
2018-07-16T00:55:56.193Z,19.17
2018-07-16T00:56:56.132Z,19.10
2018-07-16T00:58:49.423Z,19.12
2018-07-16T00:59:49.342Z,19.15
2018-07-16T01:01:42.625Z,19.16
2018-07-16T01:02:42.564Z,19.09
2018-07-16T01:04:35.859Z,19.09
2018-07-16T01:05:35.778Z,19.07
2018-07-16T01:07:29.054Z,18.96
2018-07-16T01:08:28.996Z,18.84
2018-07-16T01:10:22.376Z,18.86
2018-07-16T01:11:22.295Z,18.81
2018-07-16T01:13:15.595Z,18.86
2018-07-16T01:14:15.515Z,18.75
2018-07-16T01:16:08.900Z,18.74
2018-07-16T01:17:08.735Z,18.74
2018-07-16T01:19:02.137Z,18.72
2018-07-16T01:20:01.953Z,18.71
2018-07-16T01:21:55.336Z,18.68
2018-07-16T01:22:55.170Z,18.63
2018-07-16T01:24:48.467Z,18.59
2018-07-16T01:25:48.392Z,18.71
2018-07-16T01:27:41.668Z,18.56
2018-07-16T01:28:41.604Z,18.59
2018-07-16T01:30:35.009Z,18.56
2018-07-16T01:31:34.823Z,18.65
2018-07-16T01:33:28.121Z,18.57
2018-07-16T01:34:28.044Z,18.63
2018-07-16T01:36:21.320Z,18.60
2018-07-16T01:37:21.259Z,18.60
2018-07-16T01:39:14.558Z,18.65
2018-07-16T01:40:14.476Z,18.66
2018-07-16T01:42:07.861Z,18.56
2018-07-16T01:43:07.697Z,18.60
2018-07-16T01:45:00.994Z,18.63
2018-07-16T01:46:00.913Z,18.61
2018-07-16T01:47:54.295Z,18.50
2018-07-16T01:48:54.133Z,18.49
2018-07-16T01:50:47.430Z,18.50
2018-07-16T01:51:47.349Z,18.47
2018-07-16T01:53:40.646Z,18.42
2018-07-16T01:54:40.567Z,18.45
2018-07-16T01:56:33.845Z,18.45
2018-07-16T01:57:33.786Z,18.45
2018-07-16T01:59:27.083Z,18.44
2018-07-16T02:00:27.002Z,18.38
2018-07-16T02:02:20.358Z,18.44
2018-07-16T02:03:20.296Z,18.45
2018-07-16T02:05:13.594Z,18.41
2018-07-16T02:06:13.514Z,18.35
2018-07-16T02:08:06.785Z,18.39
2018-07-16T02:09:06.724Z,18.26
2018-07-16T02:11:00.124Z,18.35
2018-07-16T02:11:59.940Z,18.32
2018-07-16T02:13:53.237Z,18.29
2018-07-16T02:14:53.157Z,18.38
2018-07-16T02:16:46.453Z,18.24
2018-07-16T02:17:46.374Z,18.31
2018-07-16T02:19:39.653Z,18.16
2018-07-16T02:20:39.591Z,18.23
2018-07-16T02:22:32.888Z,18.20
2018-07-16T02:23:32.811Z,18.20
2018-07-16T02:25:26.087Z,18.14
2018-07-16T02:26:26.027Z,18.05
2018-07-16T02:28:19.932Z,17.98
2018-07-16T02:29:19.245Z,17.95
2018-07-16T02:31:12.647Z,17.90
2018-07-16T02:32:12.462Z,17.90
2018-07-16T02:34:05.742Z,17.98
2018-07-16T02:35:05.678Z,17.90
2018-07-16T02:36:59.081Z,17.92
2018-07-16T02:37:58.895Z,17.90
2018-07-16T02:39:52.173Z,17.92
2018-07-16T02:40:52.110Z,17.84
2018-07-16T02:42:45.407Z,17.88
2018-07-16T02:43:45.325Z,17.87
2018-07-16T02:45:38.603Z,17.74
2018-07-16T02:46:38.543Z,17.80
2018-07-16T02:48:31.831Z,17.87
2018-07-16T02:49:31.749Z,17.80
2018-07-16T02:51:25.152Z,17.80
2018-07-16T02:52:24.967Z,17.79
2018-07-16T02:54:18.356Z,17.68
2018-07-16T02:55:18.301Z,17.71
2018-07-16T02:57:11.593Z,17.74
2018-07-16T02:58:11.519Z,17.76
2018-07-16T03:00:05.392Z,17.68
2018-07-16T03:01:04.727Z,17.77
2018-07-16T03:02:58.023Z,17.77
2018-07-16T03:03:57.943Z,17.79
2018-07-16T03:05:51.219Z,17.73
2018-07-16T03:06:51.160Z,17.66
2018-07-16T03:08:44.444Z,17.68
2018-07-16T03:09:44.364Z,17.69
2018-07-16T03:11:37.646Z,17.73
2018-07-16T03:12:37.586Z,17.68
2018-07-16T03:14:30.878Z,17.71
2018-07-16T03:15:30.797Z,17.69
2018-07-16T03:17:24.110Z,17.69
2018-07-16T03:18:24.012Z,17.68
2018-07-16T03:20:17.291Z,17.62
2018-07-16T03:21:17.229Z,17.55
2018-07-16T03:23:11.376Z,17.54
2018-07-16T03:24:11.305Z,17.58
2018-07-16T03:26:04.575Z,17.54
2018-07-16T03:27:04.513Z,17.62
2018-07-16T03:28:57.915Z,17.52
2018-07-16T03:29:57.728Z,17.52
2018-07-16T03:31:51.014Z,17.52
2018-07-16T03:32:50.944Z,17.55
2018-07-16T03:34:44.240Z,17.55
2018-07-16T03:35:44.160Z,17.55
2018-07-16T03:37:37.436Z,17.57
2018-07-16T03:38:37.373Z,17.54
2018-07-16T03:40:30.774Z,17.47
2018-07-16T03:41:30.592Z,17.55
2018-07-16T03:43:23.884Z,17.55
2018-07-16T03:44:23.805Z,17.60
2018-07-16T03:46:17.187Z,17.55
2018-07-16T03:47:17.020Z,17.57
2018-07-16T03:49:10.375Z,17.52
2018-07-16T03:50:10.294Z,17.57
2018-07-16T03:52:03.569Z,17.54
2018-07-16T03:53:03.509Z,17.54
2018-07-16T03:54:56.806Z,17.52
2018-07-16T03:55:56.884Z,17.58
2018-07-16T03:57:49.993Z,17.54
2018-07-16T03:58:49.930Z,17.55
2018-07-16T04:00:43.226Z,17.68
2018-07-16T04:01:43.226Z,17.54
2018-07-16T04:03:36.443Z,17.55
2018-07-16T04:04:36.363Z,17.60
2018-07-16T04:06:29.637Z,17.65
2018-07-16T04:07:29.576Z,17.65
2018-07-16T04:09:22.872Z,17.63
2018-07-16T04:10:22.795Z,17.65
2018-07-16T04:12:16.172Z,17.66
2018-07-16T04:13:16.008Z,17.60
2018-07-16T04:15:09.301Z,17.57
2018-07-16T04:16:09.220Z,17.55
2018-07-16T04:18:02.491Z,17.46
2018-07-16T04:19:02.428Z,17.50
2018-07-16T04:20:55.722Z,17.54
2018-07-16T04:21:55.643Z,17.46
2018-07-16T04:23:49.024Z,17.50
2018-07-16T04:24:48.860Z,17.49
2018-07-16T04:26:42.153Z,17.52
2018-07-16T04:27:42.073Z,17.63
2018-07-16T04:29:35.370Z,17.54
2018-07-16T04:30:35.288Z,17.57
2018-07-16T04:32:28.565Z,17.63
2018-07-16T04:33:28.504Z,17.68
2018-07-16T04:35:22.404Z,17.73
2018-07-16T04:36:21.720Z,17.76
2018-07-16T04:38:14.988Z,17.71
2018-07-16T04:39:14.926Z,17.74
2018-07-16T04:41:08.327Z,17.69
2018-07-16T04:42:08.141Z,17.76
2018-07-16T04:44:01.418Z,17.80
2018-07-16T04:45:01.356Z,17.76
2018-07-16T04:46:54.757Z,17.80
2018-07-16T04:47:54.572Z,17.77
2018-07-16T04:49:47.867Z,17.94
2018-07-16T04:50:47.788Z,17.95
2018-07-16T04:52:41.064Z,17.99
2018-07-16T04:53:41.001Z,17.95
2018-07-16T04:55:34.378Z,18.01
2018-07-16T04:56:34.295Z,18.10
2018-07-16T04:58:27.564Z,17.95
2018-07-16T04:59:27.504Z,18.10
2018-07-16T05:01:20.800Z,18.03
2018-07-16T05:02:20.720Z,18.08
2018-07-16T05:04:13.998Z,18.21
2018-07-16T05:05:13.937Z,18.23
2018-07-16T05:07:07.231Z,18.29
2018-07-16T05:08:07.158Z,18.35
2018-07-16T05:10:00.450Z,18.21
2018-07-16T05:11:00.371Z,18.16
2018-07-16T05:12:53.657Z,18.29
2018-07-16T05:13:53.587Z,18.36
2018-07-16T05:15:46.989Z,18.36
2018-07-16T05:16:46.803Z,18.44
2018-07-16T05:18:40.085Z,18.47
2018-07-16T05:19:40.023Z,18.50
2018-07-16T05:21:33.318Z,18.50
2018-07-16T05:22:33.240Z,18.65
2018-07-16T05:24:26.517Z,18.69
2018-07-16T05:25:26.456Z,18.75
2018-07-16T05:27:19.754Z,18.76
2018-07-16T05:28:19.673Z,18.74
2018-07-16T05:30:12.951Z,18.89
2018-07-16T05:31:12.889Z,18.90
2018-07-16T05:33:06.198Z,18.93
2018-07-16T05:34:06.106Z,18.90
2018-07-16T05:35:59.525Z,18.94
2018-07-16T05:36:59.326Z,18.97
2018-07-16T05:38:52.596Z,19.12
2018-07-16T05:39:52.533Z,19.10
2018-07-16T05:41:45.835Z,19.27
2018-07-16T05:42:45.756Z,19.23
2018-07-16T05:44:39.039Z,19.34
2018-07-16T05:45:38.980Z,19.38
2018-07-16T05:47:32.381Z,19.43
2018-07-16T05:48:32.296Z,19.53
2018-07-16T05:50:25.573Z,19.47
2018-07-16T05:51:25.513Z,19.57
2018-07-16T05:53:18.811Z,19.52
2018-07-16T05:54:18.736Z,19.49
2018-07-16T05:56:12.116Z,19.61
2018-07-16T05:57:11.954Z,19.63
2018-07-16T05:59:05.354Z,19.74
2018-07-16T06:00:05.172Z,19.67
2018-07-16T06:01:58.469Z,19.65
2018-07-16T06:02:58.391Z,19.61
2018-07-16T06:04:51.672Z,19.78
2018-07-16T06:05:51.613Z,19.83
2018-07-16T06:07:44.911Z,19.79
2018-07-16T06:08:44.854Z,19.80
2018-07-16T06:10:38.115Z,19.87
2018-07-16T06:11:38.052Z,19.89
2018-07-16T06:13:31.353Z,19.98
2018-07-16T06:14:31.331Z,20.00
2018-07-16T06:16:24.557Z,20.16
2018-07-16T06:17:24.492Z,20.18
2018-07-16T06:19:17.803Z,20.41
2018-07-16T06:20:17.715Z,20.48
2018-07-16T06:22:11.015Z,20.53
2018-07-16T06:23:10.939Z,20.71
2018-07-16T06:25:04.219Z,20.85
2018-07-16T06:26:04.158Z,21.01
2018-07-16T06:27:57.463Z,21.40
2018-07-16T06:28:57.383Z,21.94
2018-07-16T06:30:50.667Z,23.16
2018-07-16T06:31:50.609Z,23.67
2018-07-16T06:33:43.928Z,24.70
2018-07-16T06:34:43.845Z,25.00
2018-07-16T06:36:37.142Z,25.27
2018-07-16T06:37:37.089Z,25.41
2018-07-16T06:39:30.452Z,25.97
2018-07-16T06:40:30.538Z,26.00
2018-07-16T06:42:23.637Z,26.01
2018-07-16T06:43:23.588Z,26.00
2018-07-16T06:45:16.910Z,25.39
2018-07-16T06:46:16.844Z,25.24
2018-07-16T06:48:10.170Z,25.41
2018-07-16T06:49:10.106Z,25.67
2018-07-16T06:51:03.509Z,26.24
2018-07-16T06:52:03.461Z,26.20
2018-07-16T06:53:57.794Z,26.04
2018-07-16T06:54:58.126Z,26.34
2018-07-16T06:56:51.027Z,26.07
2018-07-16T06:57:50.982Z,26.27
2018-07-16T06:59:44.298Z,26.68
2018-07-16T07:00:44.231Z,26.00
2018-07-16T07:02:37.529Z,25.59
2018-07-16T07:03:37.483Z,25.37
2018-07-16T07:05:30.801Z,26.07
2018-07-16T07:06:30.736Z,26.37
2018-07-16T07:08:24.038Z,26.68
2018-07-16T07:09:23.992Z,26.86
2018-07-16T07:11:17.533Z,27.12
2018-07-16T07:12:17.464Z,27.12
2018-07-16T07:14:10.797Z,26.82
2018-07-16T07:15:10.717Z,26.91
2018-07-16T07:17:04.015Z,27.18
2018-07-16T07:18:03.979Z,27.05
2018-07-16T07:19:57.516Z,26.39
2018-07-16T07:20:57.451Z,25.82
2018-07-16T07:22:50.761Z,26.39
2018-07-16T07:23:50.715Z,26.72
2018-07-16T07:25:44.136Z,26.90
2018-07-16T07:26:43.966Z,26.59
2018-07-16T07:28:37.369Z,27.15
2018-07-16T07:29:37.322Z,27.24
2018-07-16T07:31:30.640Z,27.01
2018-07-16T07:32:30.574Z,27.12
2018-07-16T07:34:23.880Z,27.13
2018-07-16T07:35:23.888Z,27.12
2018-07-16T07:37:17.155Z,26.75
2018-07-16T07:38:17.083Z,26.35
2018-07-16T07:40:10.386Z,26.64
2018-07-16T07:41:10.336Z,27.00
2018-07-16T07:43:03.756Z,27.38
2018-07-16T07:44:03.649Z,27.57
2018-07-16T07:45:56.914Z,27.15
2018-07-16T07:46:56.850Z,27.12
2018-07-16T07:48:50.149Z,26.47
2018-07-16T07:49:50.101Z,26.50
2018-07-16T07:51:43.524Z,26.30
2018-07-16T07:52:43.353Z,26.69
2018-07-16T07:54:36.928Z,27.31
2018-07-16T07:55:36.630Z,27.13
2018-07-16T07:57:30.025Z,26.91
2018-07-16T07:58:29.856Z,26.97
2018-07-16T08:00:23.151Z,27.21
2018-07-16T08:01:23.104Z,26.99
2018-07-16T08:03:16.577Z,26.78
2018-07-16T08:04:16.374Z,27.00
2018-07-16T08:06:09.698Z,27.18
2018-07-16T08:07:09.632Z,26.86
2018-07-16T08:09:02.928Z,26.49
2018-07-16T08:10:02.880Z,26.69
2018-07-16T08:11:56.196Z,26.90
2018-07-16T08:12:56.125Z,27.12
2018-07-16T08:14:49.423Z,27.11
2018-07-16T08:15:49.373Z,26.68
2018-07-16T08:17:42.695Z,26.45
2018-07-16T08:18:42.668Z,26.84
2018-07-16T08:20:36.925Z,26.82
2018-07-16T08:21:36.875Z,26.60
2018-07-16T08:23:30.186Z,26.68
2018-07-16T08:24:30.116Z,26.61
2018-07-16T08:26:23.407Z,26.67
2018-07-16T08:27:23.357Z,26.99
2018-07-16T08:29:16.666Z,27.21
2018-07-16T08:30:16.596Z,27.48
2018-07-16T08:32:09.906Z,27.18
2018-07-16T08:33:09.835Z,27.18
2018-07-16T08:35:03.139Z,27.28
2018-07-16T08:36:03.084Z,27.41
2018-07-16T08:37:56.498Z,27.13
2018-07-16T08:38:56.324Z,27.00
2018-07-16T08:40:49.623Z,26.89
2018-07-16T08:41:49.570Z,27.09
2018-07-16T08:43:42.886Z,27.27
2018-07-16T08:44:42.818Z,27.41
2018-07-16T08:46:36.105Z,26.97
2018-07-16T08:47:36.052Z,27.05
2018-07-16T08:49:29.385Z,27.62
2018-07-16T08:50:29.308Z,28.01
2018-07-16T08:52:22.618Z,27.80
2018-07-16T08:53:22.548Z,27.68
2018-07-16T08:55:15.851Z,27.45
2018-07-16T08:56:15.799Z,27.36
2018-07-16T08:58:09.107Z,27.23
2018-07-16T08:59:09.056Z,27.57
2018-07-16T09:01:02.433Z,27.81
2018-07-16T09:02:02.272Z,27.91
2018-07-16T09:03:55.610Z,27.53
2018-07-16T09:04:55.505Z,28.02
2018-07-16T09:06:48.807Z,28.33
2018-07-16T09:07:48.754Z,28.49
2018-07-16T09:09:42.062Z,28.45
2018-07-16T09:10:41.990Z,28.26
2018-07-16T09:12:35.383Z,27.81
2018-07-16T09:13:35.395Z,28.06
2018-07-16T09:15:28.616Z,28.31
2018-07-16T09:16:28.545Z,28.14
2018-07-16T09:18:21.854Z,28.58
2018-07-16T09:19:21.838Z,28.21
2018-07-16T09:21:15.178Z,28.72
2018-07-16T09:22:15.021Z,28.64
2018-07-16T09:24:08.328Z,28.58
2018-07-16T09:25:08.259Z,28.53
2018-07-16T09:27:01.552Z,29.05
2018-07-16T09:28:01.495Z,29.29
2018-07-16T09:29:54.805Z,28.68
2018-07-16T09:30:54.739Z,29.03
2018-07-16T09:32:48.115Z,29.21
2018-07-16T09:33:47.986Z,28.75
2018-07-16T09:35:41.382Z,28.79
2018-07-16T09:36:41.320Z,29.28
2018-07-16T09:38:34.644Z,29.18
2018-07-16T09:39:34.552Z,29.26
2018-07-16T09:41:27.852Z,29.32
2018-07-16T09:42:27.802Z,29.54
2018-07-16T09:44:21.230Z,29.39
2018-07-16T09:45:21.039Z,29.85
2018-07-16T09:47:14.330Z,30.59
2018-07-16T09:48:14.318Z,29.63
2018-07-16T09:50:07.587Z,30.16
2018-07-16T09:51:07.518Z,30.44
2018-07-16T09:53:00.807Z,29.91
2018-07-16T09:54:00.755Z,29.28
2018-07-16T09:55:54.080Z,28.48
2018-07-16T09:56:54.013Z,28.80
2018-07-16T09:58:47.386Z,29.58
2018-07-16T09:59:47.305Z,29.91
2018-07-16T10:01:41.663Z,30.73
2018-07-16T10:02:41.610Z,30.48
2018-07-16T10:04:34.919Z,29.60
2018-07-16T10:05:34.857Z,29.30
2018-07-16T10:07:28.138Z,30.03
2018-07-16T10:08:28.168Z,30.40
2018-07-16T10:10:21.510Z,30.42
2018-07-16T10:11:21.328Z,30.37
2018-07-16T10:13:14.621Z,31.08
2018-07-16T10:14:14.577Z,30.75
2018-07-16T10:16:08.900Z,30.67
2018-07-16T10:17:08.811Z,31.18
2018-07-16T10:19:02.102Z,31.40
2018-07-16T10:20:02.056Z,31.77
2018-07-16T10:21:55.382Z,31.56
2018-07-16T10:22:55.316Z,31.78
2018-07-16T10:24:48.634Z,31.81
2018-07-16T10:25:48.624Z,31.12
2018-07-16T10:27:41.854Z,31.40
2018-07-16T10:28:41.806Z,31.91
2018-07-16T10:30:35.111Z,32.89
2018-07-16T10:31:35.623Z,32.50
2018-07-16T10:33:28.344Z,31.77
2018-07-16T10:34:28.296Z,31.07
2018-07-16T10:36:21.608Z,30.86
2018-07-16T10:37:21.540Z,31.22
2018-07-16T10:39:14.836Z,30.37
2018-07-16T10:40:14.784Z,30.79
2018-07-16T10:42:08.099Z,30.66
2018-07-16T10:43:08.031Z,31.10
2018-07-16T10:45:01.385Z,31.28
2018-07-16T10:46:01.311Z,31.43
2018-07-16T10:47:54.603Z,31.75
2018-07-16T10:48:54.557Z,31.43
2018-07-16T10:50:47.868Z,31.13
2018-07-16T10:51:47.803Z,30.60
2018-07-16T10:53:41.094Z,30.64
2018-07-16T10:54:41.051Z,30.71
2018-07-16T10:56:34.464Z,30.03
2018-07-16T10:57:34.298Z,30.39
2018-07-16T10:59:28.589Z,31.23
2018-07-16T11:00:28.540Z,31.62
2018-07-16T11:02:22.850Z,32.13
2018-07-16T11:03:22.885Z,32.38
2018-07-16T11:05:16.135Z,31.28
2018-07-16T11:06:16.031Z,30.63
2018-07-16T11:08:09.385Z,30.67
2018-07-16T11:09:09.320Z,30.70
2018-07-16T11:11:02.737Z,30.89
2018-07-16T11:12:02.575Z,30.86
2018-07-16T11:13:55.876Z,31.58
2018-07-16T11:14:55.869Z,31.01
2018-07-16T11:16:49.140Z,30.49
2018-07-16T11:17:49.076Z,30.57
2018-07-16T11:19:42.371Z,30.69
2018-07-16T11:20:42.321Z,30.82
2018-07-16T11:22:35.634Z,30.31
2018-07-16T11:23:35.568Z,29.91
2018-07-16T11:25:28.976Z,29.69
2018-07-16T11:26:28.817Z,29.88
2018-07-16T11:28:22.130Z,30.60
2018-07-16T11:29:22.063Z,30.47
2018-07-16T11:31:15.392Z,30.19
2018-07-16T11:32:15.309Z,30.32
2018-07-16T11:34:08.606Z,30.60
2018-07-16T11:35:08.552Z,30.79
2018-07-16T11:37:01.869Z,30.00
2018-07-16T11:38:01.802Z,29.89
2018-07-16T11:39:55.097Z,29.77
2018-07-16T11:40:55.047Z,29.60
2018-07-16T11:42:48.381Z,30.06
2018-07-16T11:43:48.315Z,29.85
2018-07-16T11:45:41.626Z,29.72
2018-07-16T11:46:41.578Z,29.65
2018-07-16T11:48:34.889Z,29.39
2018-07-16T11:49:34.822Z,29.18
2018-07-16T11:51:28.125Z,28.63
2018-07-16T11:52:28.076Z,28.54
2018-07-16T11:54:21.396Z,28.61
2018-07-16T11:55:21.330Z,28.45
2018-07-16T11:57:14.744Z,28.38
2018-07-16T11:58:14.577Z,28.60
2018-07-16T12:00:07.875Z,28.38
2018-07-16T12:01:07.824Z,28.55
2018-07-16T12:03:01.239Z,28.58
2018-07-16T12:04:01.095Z,28.57
2018-07-16T12:05:54.497Z,28.21
2018-07-16T12:06:54.445Z,28.23
2018-07-16T12:08:47.753Z,28.24
2018-07-16T12:09:47.687Z,28.35
2018-07-16T12:11:41.834Z,28.61
2018-07-16T12:12:41.846Z,28.75
2018-07-16T12:14:35.091Z,28.65
2018-07-16T12:15:35.024Z,28.43
2018-07-16T12:17:28.499Z,28.41
2018-07-16T12:18:28.446Z,28.45
2018-07-16T12:20:21.770Z,28.53
2018-07-16T12:21:21.689Z,28.70
2018-07-16T12:23:15.005Z,28.82
2018-07-16T12:24:14.933Z,28.78
2018-07-16T12:26:08.328Z,28.97
2018-07-16T12:27:08.182Z,29.15
2018-07-16T12:29:01.482Z,29.20
2018-07-16T12:30:01.413Z,28.94
2018-07-16T12:31:54.708Z,28.64
2018-07-16T12:32:54.720Z,28.68
2018-07-16T12:34:47.971Z,29.13
2018-07-16T12:35:47.904Z,29.18
2018-07-16T12:37:41.295Z,29.42
2018-07-16T12:38:41.145Z,29.54
2018-07-16T12:40:34.559Z,29.69
2018-07-16T12:41:34.537Z,29.81
2018-07-16T12:43:28.762Z,29.95
2018-07-16T12:44:28.684Z,29.95
2018-07-16T12:46:22.103Z,29.84
2018-07-16T12:47:21.935Z,29.76
2018-07-16T12:49:15.254Z,29.66
2018-07-16T12:50:15.181Z,29.60
2018-07-16T12:52:08.492Z,29.60
2018-07-16T12:53:08.442Z,29.39
2018-07-16T12:55:01.759Z,29.24
2018-07-16T12:56:01.687Z,29.17
2018-07-16T12:57:54.978Z,29.21
2018-07-16T12:58:54.926Z,29.13
2018-07-16T13:00:48.241Z,29.06
2018-07-16T13:01:48.173Z,29.13
2018-07-16T13:03:41.468Z,29.29
2018-07-16T13:04:41.415Z,29.24
2018-07-16T13:06:34.831Z,29.21
2018-07-16T13:07:34.661Z,29.21
2018-07-16T13:09:27.976Z,29.20
2018-07-16T13:10:27.906Z,29.26
2018-07-16T13:12:21.202Z,29.65
2018-07-16T13:13:21.152Z,29.63
2018-07-16T13:15:14.518Z,29.50
2018-07-16T13:16:14.446Z,29.65
2018-07-16T13:18:07.738Z,29.24
2018-07-16T13:19:07.686Z,29.21
2018-07-16T13:21:00.998Z,29.30
2018-07-16T13:22:00.931Z,29.40
2018-07-16T13:23:54.214Z,29.57
2018-07-16T13:24:54.161Z,29.42
2018-07-16T13:26:47.469Z,29.45
2018-07-16T13:27:47.398Z,29.45
2018-07-16T13:29:40.688Z,29.23
2018-07-16T13:30:40.638Z,29.21
2018-07-16T13:32:33.941Z,29.24
2018-07-16T13:33:33.875Z,29.18
2018-07-16T13:35:27.180Z,28.98
2018-07-16T13:36:27.108Z,29.03
2018-07-16T13:38:20.500Z,29.11
2018-07-16T13:39:20.447Z,29.23
2018-07-16T13:41:13.752Z,29.21
2018-07-16T13:42:13.682Z,29.15
2018-07-16T13:44:06.971Z,29.23
2018-07-16T13:45:06.917Z,29.17
2018-07-16T13:47:00.237Z,29.05
2018-07-16T13:48:00.164Z,28.94
2018-07-16T13:49:53.457Z,29.05
2018-07-16T13:50:53.405Z,29.15
2018-07-16T13:52:46.754Z,29.30
2018-07-16T13:53:46.651Z,29.24
2018-07-16T13:55:39.976Z,29.36
2018-07-16T13:56:39.893Z,29.23
2018-07-16T13:58:33.182Z,28.94
2018-07-16T13:59:33.131Z,29.06
2018-07-16T14:01:26.563Z,29.32
2018-07-16T14:02:26.439Z,29.36
2018-07-16T14:04:19.735Z,29.40
2018-07-16T14:05:19.683Z,29.47
2018-07-16T14:07:12.997Z,29.75
2018-07-16T14:08:12.928Z,29.76
2018-07-16T14:10:06.223Z,29.79
2018-07-16T14:11:06.172Z,29.72
2018-07-16T14:12:59.491Z,29.52
2018-07-16T14:13:59.418Z,29.58
2018-07-16T14:15:52.733Z,29.63
2018-07-16T14:16:52.663Z,29.82
2018-07-16T14:18:46.058Z,29.91
2018-07-16T14:19:45.899Z,29.94
2018-07-16T14:21:39.221Z,29.97
2018-07-16T14:22:39.150Z,29.98
2018-07-16T14:24:32.497Z,29.98
2018-07-16T14:25:32.445Z,29.89
2018-07-16T14:27:25.762Z,29.94
2018-07-16T14:28:25.694Z,30.00
2018-07-16T14:30:18.989Z,30.14
2018-07-16T14:31:19.041Z,30.21
2018-07-16T14:33:12.353Z,29.79
2018-07-16T14:34:12.184Z,29.54
2018-07-16T14:36:05.579Z,29.81
2018-07-16T14:37:05.432Z,29.98
2018-07-16T14:38:58.750Z,29.82
2018-07-16T14:39:58.711Z,29.69
2018-07-16T14:41:52.006Z,29.87
2018-07-16T14:42:51.938Z,29.91
2018-07-16T14:44:45.333Z,29.94
2018-07-16T14:45:45.179Z,30.06
2018-07-16T14:47:38.560Z,30.13
2018-07-16T14:48:38.448Z,30.10
2018-07-16T14:50:31.821Z,29.92
2018-07-16T14:51:31.688Z,29.91
2018-07-16T14:53:25.007Z,29.87
2018-07-16T14:54:24.937Z,29.88
2018-07-16T14:56:18.235Z,29.91
2018-07-16T14:57:18.182Z,29.92
2018-07-16T14:59:11.647Z,30.14
2018-07-16T15:00:11.432Z,30.03
2018-07-16T15:02:04.727Z,29.94
2018-07-16T15:03:04.675Z,30.07
2018-07-16T15:04:57.995Z,29.98
2018-07-16T15:05:57.922Z,30.02
2018-07-16T15:07:51.243Z,29.81
2018-07-16T15:08:51.182Z,29.87
2018-07-16T15:10:44.499Z,30.00
2018-07-16T15:11:44.446Z,29.87
2018-07-16T15:13:37.763Z,29.82
2018-07-16T15:14:37.693Z,29.89
2018-07-16T15:16:30.992Z,29.91
2018-07-16T15:17:30.940Z,29.89
2018-07-16T15:19:24.256Z,29.79
2018-07-16T15:20:24.320Z,29.67
2018-07-16T15:22:17.484Z,29.84
2018-07-16T15:23:17.431Z,30.06
2018-07-16T15:25:10.750Z,30.19
2018-07-16T15:26:10.681Z,30.19
2018-07-16T15:28:03.966Z,30.26
2018-07-16T15:29:03.916Z,30.03
2018-07-16T15:30:57.235Z,29.70
2018-07-16T15:31:57.161Z,29.69
2018-07-16T15:33:50.519Z,29.92
2018-07-16T15:34:50.447Z,30.00
2018-07-16T15:36:43.843Z,30.18
2018-07-16T15:37:43.698Z,30.18
2018-07-16T15:39:37.015Z,29.84
2018-07-16T15:40:36.945Z,29.91
2018-07-16T15:42:30.501Z,29.97
2018-07-16T15:43:30.447Z,29.94
2018-07-16T15:45:23.763Z,30.10
2018-07-16T15:46:23.693Z,29.97
2018-07-16T15:48:17.035Z,30.02
2018-07-16T15:49:16.932Z,30.02
2018-07-16T15:51:10.348Z,30.02
2018-07-16T15:52:10.179Z,29.98
2018-07-16T15:54:03.507Z,30.02
2018-07-16T15:55:03.428Z,30.18
2018-07-16T15:56:56.724Z,29.95
2018-07-16T15:57:56.672Z,29.97
2018-07-16T15:59:49.989Z,29.87
2018-07-16T16:00:49.921Z,29.91
2018-07-16T16:02:42.778Z,29.89
2018-07-16T16:03:42.686Z,29.89
2018-07-16T16:05:36.002Z,29.98
2018-07-16T16:06:35.925Z,29.88
2018-07-16T16:08:29.246Z,29.61
2018-07-16T16:09:29.200Z,29.63
2018-07-16T16:11:22.514Z,29.76
2018-07-16T16:12:22.445Z,29.97
2018-07-16T16:14:15.752Z,29.82
2018-07-16T16:15:15.701Z,29.95
2018-07-16T16:17:09.076Z,30.07
2018-07-16T16:18:08.950Z,30.10
2018-07-16T16:20:02.509Z,30.06
2018-07-16T16:21:02.436Z,30.04
2018-07-16T16:22:55.738Z,29.87
2018-07-16T16:23:55.688Z,29.85
2018-07-16T16:25:49.007Z,30.03
2018-07-16T16:26:48.941Z,30.03
2018-07-16T16:28:42.228Z,29.91
2018-07-16T16:29:42.179Z,29.94
2018-07-16T16:31:35.493Z,29.58
2018-07-16T16:32:35.460Z,29.61
2018-07-16T16:34:28.730Z,29.92
2018-07-16T16:35:28.678Z,30.14
2018-07-16T16:37:21.993Z,30.14
2018-07-16T16:38:21.922Z,30.06
2018-07-16T16:40:15.240Z,30.09
2018-07-16T16:41:15.167Z,30.07
2018-07-16T16:43:08.527Z,29.79
2018-07-16T16:44:08.447Z,29.67
2018-07-16T16:46:01.863Z,29.63
2018-07-16T16:47:01.697Z,29.69
2018-07-16T16:48:54.995Z,29.87
2018-07-16T16:49:54.945Z,29.79
2018-07-16T16:51:48.257Z,29.57
2018-07-16T16:52:48.211Z,29.65
2018-07-16T16:54:41.492Z,29.66
2018-07-16T16:55:41.433Z,29.87
2018-07-16T16:57:34.751Z,29.85
2018-07-16T16:58:34.680Z,30.00
2018-07-16T17:00:27.975Z,30.09
2018-07-16T17:01:27.925Z,30.07
2018-07-16T17:03:21.243Z,29.98
2018-07-16T17:04:21.171Z,30.06
2018-07-16T17:06:14.512Z,29.88
2018-07-16T17:07:14.441Z,29.76
2018-07-16T17:09:07.738Z,29.77
2018-07-16T17:10:07.684Z,29.81
2018-07-16T17:12:01.010Z,29.75
2018-07-16T17:13:00.930Z,29.82
2018-07-16T17:14:54.227Z,29.61
2018-07-16T17:15:54.177Z,29.69
2018-07-16T17:17:47.492Z,29.52
2018-07-16T17:18:47.424Z,29.43
2018-07-16T17:20:40.721Z,29.33
2018-07-16T17:21:40.669Z,29.33
2018-07-16T17:23:34.041Z,29.61
2018-07-16T17:24:33.915Z,29.65
2018-07-16T17:26:27.212Z,29.76
2018-07-16T17:27:27.161Z,29.66
2018-07-16T17:29:20.521Z,29.70
2018-07-16T17:30:20.451Z,29.66
2018-07-16T17:32:13.763Z,29.51
2018-07-16T17:33:13.692Z,29.39
2018-07-16T17:35:06.995Z,29.29
2018-07-16T17:36:06.939Z,29.29
2018-07-16T17:38:00.260Z,29.18
2018-07-16T17:39:00.189Z,29.13
2018-07-16T17:40:53.487Z,29.10
2018-07-16T17:41:53.434Z,29.20
2018-07-16T17:43:46.750Z,29.13
2018-07-16T17:44:46.679Z,29.21
2018-07-16T17:46:39.977Z,29.17
2018-07-16T17:47:39.927Z,29.10
2018-07-16T17:49:33.297Z,29.11
2018-07-16T17:50:33.168Z,29.11
2018-07-16T17:52:26.528Z,29.17
2018-07-16T17:53:26.473Z,29.03
2018-07-16T17:55:19.742Z,28.98
2018-07-16T17:56:19.687Z,29.02
2018-07-16T17:58:12.994Z,29.05
2018-07-16T17:59:12.926Z,29.06
2018-07-16T18:01:06.235Z,29.05
2018-07-16T18:02:06.166Z,28.97
2018-07-16T18:03:59.487Z,28.98
2018-07-16T18:04:59.412Z,28.90
2018-07-16T18:06:52.705Z,28.73
2018-07-16T18:07:52.652Z,28.75
2018-07-16T18:09:45.965Z,28.83
2018-07-16T18:10:45.896Z,28.90
2018-07-16T18:12:39.189Z,28.86
2018-07-16T18:13:39.136Z,28.78
2018-07-16T18:15:32.516Z,28.80
2018-07-16T18:16:32.443Z,28.78
2018-07-16T18:18:25.771Z,28.73
2018-07-16T18:19:25.696Z,28.75
2018-07-16T18:21:19.990Z,28.54
2018-07-16T18:22:19.933Z,28.63
2018-07-16T18:24:13.248Z,28.63
2018-07-16T18:25:13.177Z,28.54
2018-07-16T18:27:06.487Z,28.57
2018-07-16T18:28:06.434Z,28.58
2018-07-16T18:29:59.749Z,28.42
2018-07-16T18:30:59.675Z,28.41
2018-07-16T18:32:52.974Z,28.36
2018-07-16T18:33:52.921Z,28.39
2018-07-16T18:35:46.231Z,28.39